createdAt,value
2018-10-17T00:00:31.799Z,74.91
2018-10-17T00:03:01.433Z,74.87
2018-10-17T00:05:31.069Z,75.21
2018-10-17T00:08:00.671Z,75.88
2018-10-17T00:10:30.448Z,76.02
2018-10-17T00:13:00.128Z,75.26
2018-10-17T00:15:29.845Z,75.69
2018-10-17T00:17:59.462Z,75.08
2018-10-17T00:20:29.669Z,76.49
2018-10-17T00:22:59.667Z,76.25
2018-10-17T00:25:29.277Z,77.05
2018-10-17T00:27:58.688Z,76.52
2018-10-17T00:30:28.259Z,76.67
2018-10-17T00:32:57.961Z,77.92
2018-10-17T00:35:27.583Z,78.22
2018-10-17T00:37:57.273Z,77.99
2018-10-17T00:40:26.911Z,78.24
2018-10-17T00:42:57.128Z,77.72
2018-10-17T00:45:26.817Z,77.43
2018-10-17T00:47:56.483Z,77.74
2018-10-17T00:50:25.999Z,77.21
2018-10-17T00:52:55.733Z,77.08
2018-10-17T00:55:25.357Z,78.32
2018-10-17T00:57:54.945Z,77.92
2018-10-17T01:00:24.547Z,79.15
2018-10-17T01:02:54.276Z,79.48
2018-10-17T01:05:23.978Z,79.70
2018-10-17T01:07:53.693Z,79.95
2018-10-17T01:10:23.619Z,79.75
2018-10-17T01:12:53.239Z,79.69
2018-10-17T01:15:22.899Z,79.82
2018-10-17T01:17:52.635Z,80.39
2018-10-17T01:20:22.104Z,79.96
2018-10-17T01:22:51.755Z,80.40
2018-10-17T01:25:21.318Z,80.06
2018-10-17T01:27:51.053Z,79.88
2018-10-17T01:30:20.793Z,80.09
2018-10-17T01:32:50.340Z,80.00
2018-10-17T01:35:20.064Z,79.97
2018-10-17T01:37:49.797Z,80.14
2018-10-17T01:40:19.553Z,80.29
2018-10-17T01:42:49.132Z,80.66
2018-10-17T01:45:18.937Z,80.23
2018-10-17T01:47:48.480Z,80.16
2018-10-17T01:50:18.280Z,80.12
2018-10-17T01:52:48.003Z,79.86
2018-10-17T01:55:17.579Z,80.75
2018-10-17T01:57:47.153Z,80.84
2018-10-17T02:00:17.665Z,80.96
2018-10-17T02:02:47.253Z,80.78
2018-10-17T02:05:17.036Z,80.72
2018-10-17T02:07:46.627Z,80.72
2018-10-17T02:10:16.206Z,80.84
2018-10-17T02:12:45.931Z,79.79
2018-10-17T02:15:16.226Z,79.60
2018-10-17T02:17:45.984Z,79.53
2018-10-17T02:20:15.550Z,79.80
2018-10-17T02:22:45.184Z,79.96
2018-10-17T02:25:15.213Z,80.45
2018-10-17T02:27:45.775Z,80.46
2018-10-17T02:30:15.831Z,80.79
2018-10-17T02:32:45.341Z,81.31
2018-10-17T02:35:15.246Z,81.54
2018-10-17T02:37:44.928Z,81.70
2018-10-17T02:40:14.623Z,81.53
2018-10-17T02:42:44.175Z,81.68
2018-10-17T02:45:14.550Z,81.42
2018-10-17T02:47:44.331Z,81.42
2018-10-17T02:50:14.088Z,81.16
2018-10-17T02:52:43.928Z,81.33
2018-10-17T02:55:13.593Z,81.46
2018-10-17T02:57:43.352Z,81.80
2018-10-17T03:00:13.184Z,81.88
2018-10-17T03:02:43.411Z,82.22
2018-10-17T03:05:13.260Z,81.97
2018-10-17T03:07:43.474Z,82.52
2018-10-17T03:10:13.145Z,82.22
2018-10-17T03:12:42.692Z,82.54
2018-10-17T03:15:12.387Z,82.92
2018-10-17T03:17:42.154Z,82.91
2018-10-17T03:20:12.257Z,82.62
2018-10-17T03:22:41.890Z,82.61
2018-10-17T03:25:11.683Z,83.21
2018-10-17T03:27:41.513Z,83.28
2018-10-17T03:30:11.479Z,82.99
2018-10-17T03:32:41.065Z,82.59
2018-10-17T03:35:11.606Z,82.94
2018-10-17T03:37:41.183Z,83.46
2018-10-17T03:40:10.863Z,82.98
2018-10-17T03:42:40.578Z,82.83
2018-10-17T03:45:10.194Z,82.57
2018-10-17T03:47:39.849Z,82.99
2018-10-17T03:50:09.405Z,82.95
2018-10-17T03:52:39.075Z,82.70
2018-10-17T03:55:08.756Z,82.99
2018-10-17T03:57:38.448Z,82.58
2018-10-17T04:00:08.581Z,82.58
2018-10-17T04:02:38.394Z,83.03
2018-10-17T04:05:08.447Z,83.42
2018-10-17T04:07:38.359Z,83.82
2018-10-17T04:10:08.126Z,83.43
2018-10-17T04:12:37.819Z,83.63
2018-10-17T04:15:07.756Z,83.35
2018-10-17T04:17:37.526Z,83.47
2018-10-17T04:20:07.223Z,83.72
2018-10-17T04:22:36.912Z,84.28
2018-10-17T04:25:06.901Z,84.10
2018-10-17T04:27:36.453Z,83.92
2018-10-17T04:30:06.873Z,83.75
2018-10-17T04:32:36.500Z,83.58
2018-10-17T04:35:06.475Z,83.73
2018-10-17T04:37:36.058Z,84.16
2018-10-17T04:40:05.828Z,83.46
2018-10-17T04:42:35.577Z,83.34
2018-10-17T04:45:05.622Z,83.50
2018-10-17T04:47:35.427Z,83.40
2018-10-17T04:50:05.459Z,83.54
2018-10-17T04:52:35.189Z,83.71
2018-10-17T04:55:05.210Z,83.73
2018-10-17T04:57:34.848Z,83.97
2018-10-17T05:00:04.979Z,84.48
2018-10-17T05:02:34.450Z,84.07
2018-10-17T05:05:04.693Z,84.54
2018-10-17T05:07:34.332Z,84.17
2018-10-17T05:10:04.210Z,83.79
2018-10-17T05:12:33.821Z,82.59
2018-10-17T05:15:04.366Z,81.13
2018-10-17T05:17:33.991Z,79.01
2018-10-17T05:20:03.738Z,77.25
2018-10-17T05:22:33.261Z,75.72
2018-10-17T05:25:02.979Z,74.37
2018-10-17T05:27:32.762Z,72.73
2018-10-17T05:30:02.396Z,71.17
2018-10-17T05:32:32.082Z,69.14
2018-10-17T05:35:01.811Z,68.06
2018-10-17T05:37:31.602Z,66.92
2018-10-17T05:40:01.171Z,65.54
2018-10-17T05:42:30.900Z,64.45
2018-10-17T05:45:00.526Z,62.61
2018-10-17T05:47:30.175Z,60.75
2018-10-17T05:49:59.834Z,60.09
2018-10-17T05:52:29.636Z,58.98
2018-10-17T05:54:59.233Z,57.93
2018-10-17T05:57:29.060Z,56.03
2018-10-17T05:59:59.430Z,55.57
2018-10-17T06:02:31.595Z,54.65
2018-10-17T06:05:01.263Z,53.34
2018-10-17T06:07:31.137Z,53.09
2018-10-17T06:10:01.419Z,53.03
2018-10-17T06:12:31.235Z,52.79
2018-10-17T06:15:01.225Z,52.11
2018-10-17T06:17:31.018Z,51.04
2018-10-17T06:20:00.657Z,51.58
2018-10-17T06:22:30.192Z,50.88
2018-10-17T06:24:59.694Z,50.58
2018-10-17T06:27:29.314Z,49.98
2018-10-17T06:29:58.861Z,49.08
2018-10-17T06:32:28.550Z,49.54
2018-10-17T06:34:59.373Z,47.96
2018-10-17T06:37:29.145Z,47.52
2018-10-17T06:39:58.906Z,47.52
2018-10-17T06:42:28.634Z,45.22
2018-10-17T06:44:58.259Z,45.91
2018-10-17T06:47:28.049Z,45.64
2018-10-17T06:49:57.767Z,44.42
2018-10-17T06:52:27.344Z,44.60
2018-10-17T06:54:57.176Z,43.36
2018-10-17T06:57:26.640Z,41.95
2018-10-17T06:59:56.317Z,42.90
2018-10-17T07:02:25.974Z,41.45
2018-10-17T07:04:55.575Z,42.21
2018-10-17T07:07:25.440Z,40.91
2018-10-17T07:09:55.149Z,40.90
2018-10-17T07:12:24.781Z,39.17
2018-10-17T07:14:54.445Z,39.61
2018-10-17T07:17:25.045Z,39.52
2018-10-17T07:19:54.792Z,38.34
2018-10-17T07:22:24.322Z,37.88
2018-10-17T07:24:54.489Z,37.44
2018-10-17T07:27:23.989Z,37.28
2018-10-17T07:29:53.962Z,37.61
2018-10-17T07:32:23.771Z,37.73
2018-10-17T07:34:53.338Z,37.54
2018-10-17T07:37:23.027Z,36.57
2018-10-17T07:39:52.857Z,37.00
2018-10-17T07:42:22.585Z,37.22
2018-10-17T07:44:52.139Z,37.22
2018-10-17T07:47:21.986Z,36.53
2018-10-17T07:49:51.500Z,36.06
2018-10-17T07:52:21.044Z,36.54
2018-10-17T07:54:50.820Z,36.38
2018-10-17T07:57:20.399Z,35.64
2018-10-17T07:59:50.133Z,35.44
2018-10-17T08:02:19.821Z,34.09
2018-10-17T08:04:49.841Z,33.42
2018-10-17T08:07:19.648Z,34.35
2018-10-17T08:09:49.420Z,34.26
2018-10-17T08:12:19.138Z,33.51
2018-10-17T08:14:48.914Z,35.55
2018-10-17T08:17:18.592Z,34.30
2018-10-17T08:19:48.084Z,33.62
2018-10-17T08:22:17.725Z,32.50
2018-10-17T08:24:47.528Z,33.89
2018-10-17T08:27:17.272Z,33.96
2018-10-17T08:29:47.162Z,33.70
2018-10-17T08:32:16.922Z,32.72
2018-10-17T08:34:46.701Z,31.56
2018-10-17T08:37:16.757Z,31.54
2018-10-17T08:39:46.214Z,30.49
2018-10-17T08:42:15.988Z,30.34
2018-10-17T08:44:45.727Z,30.85
2018-10-17T08:47:15.342Z,31.28
2018-10-17T08:49:44.884Z,31.06
2018-10-17T08:52:14.530Z,31.32
2018-10-17T08:54:44.131Z,30.90
2018-10-17T08:57:13.982Z,30.87
2018-10-17T08:59:43.905Z,30.43
2018-10-17T09:02:13.857Z,30.97
2018-10-17T09:04:43.760Z,31.22
2018-10-17T09:07:13.571Z,30.97
2018-10-17T09:09:44.314Z,30.33
2018-10-17T09:12:14.164Z,30.44
2018-10-17T09:14:44.035Z,29.16
2018-10-17T09:17:13.838Z,29.27
2018-10-17T09:19:44.002Z,28.95
2018-10-17T09:22:13.836Z,29.42
2018-10-17T09:24:43.371Z,28.75
2018-10-17T09:27:13.028Z,28.60
2018-10-17T09:29:42.793Z,28.63
2018-10-17T09:32:12.791Z,28.36
2018-10-17T09:34:43.249Z,28.31
2018-10-17T09:37:13.069Z,29.55
2018-10-17T09:39:42.952Z,28.29
2018-10-17T09:42:12.880Z,28.16
2018-10-17T09:44:42.788Z,28.32
2018-10-17T09:47:12.682Z,28.64
2018-10-17T09:49:42.565Z,27.71
2018-10-17T09:52:13.318Z,28.01
2018-10-17T09:54:43.191Z,27.43
2018-10-17T09:57:13.068Z,26.35
2018-10-17T09:59:42.891Z,25.16
2018-10-17T10:02:19.125Z,25.88
2018-10-17T10:04:49.167Z,25.05
2018-10-17T10:07:19.074Z,26.67
2018-10-17T10:09:49.515Z,24.63
2018-10-17T10:12:19.481Z,25.91
2018-10-17T10:14:49.465Z,25.20
2018-10-17T10:17:19.292Z,24.25
2018-10-17T10:19:48.959Z,25.09
2018-10-17T10:22:18.588Z,24.04
2018-10-17T10:24:48.587Z,25.34
2018-10-17T10:27:18.336Z,25.12
2018-10-17T10:29:49.359Z,24.62
2018-10-17T10:32:19.254Z,25.26
2018-10-17T10:34:49.262Z,27.14
2018-10-17T10:37:18.904Z,26.34
2018-10-17T10:39:48.672Z,25.73
2018-10-17T10:42:18.782Z,25.17
2018-10-17T10:44:48.752Z,24.74
2018-10-17T10:47:18.594Z,24.15
2018-10-17T10:49:49.537Z,24.79
2018-10-17T10:52:19.524Z,25.40
2018-10-17T10:54:49.334Z,24.99
2018-10-17T10:57:19.329Z,24.72
2018-10-17T10:59:49.003Z,24.53
2018-10-17T11:02:18.998Z,24.45
2018-10-17T11:04:49.066Z,22.48
2018-10-17T11:07:18.927Z,23.50
2018-10-17T11:09:48.752Z,24.67
2018-10-17T11:12:19.590Z,24.56
2018-10-17T11:14:49.597Z,23.49
2018-10-17T11:17:19.216Z,22.79
2018-10-17T11:19:48.999Z,22.94
2018-10-17T11:22:19.030Z,23.67
2018-10-17T11:24:48.971Z,24.87
2018-10-17T11:27:18.972Z,25.37
2018-10-17T11:29:48.843Z,24.11
2018-10-17T11:32:18.673Z,24.26
2018-10-17T11:34:48.707Z,23.71
2018-10-17T11:37:18.424Z,24.72
2018-10-17T11:39:48.799Z,24.16
2018-10-17T11:42:18.643Z,24.68
2018-10-17T11:44:48.475Z,24.00
2018-10-17T11:47:18.368Z,23.32
2018-10-17T11:49:48.255Z,23.21
2018-10-17T11:52:18.031Z,24.22
2018-10-17T11:54:47.847Z,24.44
2018-10-17T11:57:17.794Z,23.55
2018-10-17T11:59:47.683Z,22.70
2018-10-17T12:02:17.588Z,22.15
2018-10-17T12:04:47.819Z,22.49
2018-10-17T12:07:17.743Z,22.55
2018-10-17T12:09:47.640Z,23.13
2018-10-17T12:12:17.491Z,24.11
2018-10-17T12:14:47.438Z,25.18
2018-10-17T12:17:17.429Z,25.70
2018-10-17T12:19:47.538Z,25.37
2018-10-17T12:22:17.414Z,26.62
2018-10-17T12:24:47.321Z,26.26
2018-10-17T12:27:17.158Z,26.23
2018-10-17T12:29:47.037Z,26.25
2018-10-17T12:32:17.134Z,26.18
2018-10-17T12:34:46.970Z,26.69
2018-10-17T12:37:16.831Z,26.15
2018-10-17T12:39:46.842Z,26.22
2018-10-17T12:42:16.662Z,25.34
2018-10-17T12:44:46.643Z,26.07
2018-10-17T12:47:16.595Z,26.09
2018-10-17T12:49:46.528Z,26.33
2018-10-17T12:52:16.505Z,25.90
2018-10-17T12:54:46.339Z,25.67
2018-10-17T12:57:16.052Z,25.08
2018-10-17T12:59:45.834Z,25.30
2018-10-17T13:02:15.677Z,24.94
2018-10-17T13:04:45.388Z,24.75
2018-10-17T13:07:15.433Z,25.05
2018-10-17T13:09:45.212Z,25.45
2018-10-17T13:12:15.069Z,24.69
2018-10-17T13:14:44.667Z,24.81
2018-10-17T13:17:14.417Z,25.33
2018-10-17T13:19:44.091Z,24.58
2018-10-17T13:22:13.818Z,25.30
2018-10-17T13:24:43.645Z,25.42
2018-10-17T13:27:13.344Z,25.65
2018-10-17T13:29:43.040Z,25.49
2018-10-17T13:32:12.693Z,26.12
2018-10-17T13:34:42.406Z,25.83
2018-10-17T13:37:12.072Z,25.71
2018-10-17T13:39:41.687Z,25.38
2018-10-17T13:42:11.324Z,25.25
2018-10-17T13:44:41.666Z,25.40
2018-10-17T13:47:11.367Z,25.42
2018-10-17T13:49:41.112Z,25.92
2018-10-17T13:52:10.687Z,26.10
2018-10-17T13:54:41.408Z,26.09
2018-10-17T13:57:11.200Z,26.31
2018-10-17T13:59:40.899Z,26.34
2018-10-17T14:02:11.490Z,26.73
2018-10-17T14:04:41.255Z,26.35
2018-10-17T14:07:11.019Z,26.49
2018-10-17T14:09:40.681Z,26.29
2018-10-17T14:12:10.239Z,26.77
2018-10-17T14:14:40.276Z,26.66
2018-10-17T14:17:09.898Z,27.11
2018-10-17T14:19:39.819Z,27.20
2018-10-17T14:22:10.204Z,27.36
2018-10-17T14:24:39.843Z,26.93
2018-10-17T14:27:09.599Z,27.04
2018-10-17T14:29:39.193Z,27.85
2018-10-17T14:32:08.803Z,27.98
2018-10-17T14:34:38.934Z,27.75
2018-10-17T14:37:09.192Z,28.04
2018-10-17T14:39:38.825Z,28.40
2018-10-17T14:42:08.696Z,29.13
2018-10-17T14:44:38.569Z,29.04
2018-10-17T14:47:08.243Z,29.28
2018-10-17T14:49:37.774Z,29.04
2018-10-17T14:52:07.634Z,29.26
2018-10-17T14:54:37.285Z,29.77
2018-10-17T14:57:06.921Z,29.81
2018-10-17T14:59:36.524Z,29.69
2018-10-17T15:02:06.689Z,29.57
2018-10-17T15:04:36.338Z,30.46
2018-10-17T15:07:06.866Z,31.08
2018-10-17T15:09:37.214Z,31.09
2018-10-17T15:12:06.870Z,31.56
2018-10-17T15:14:36.367Z,32.35
2018-10-17T15:17:06.157Z,32.30
2018-10-17T15:19:35.723Z,32.19
2018-10-17T15:22:05.509Z,32.72
2018-10-17T15:24:35.292Z,32.80
2018-10-17T15:27:04.985Z,33.41
2018-10-17T15:29:34.613Z,33.25
2018-10-17T15:32:04.296Z,34.12
2018-10-17T15:34:34.019Z,34.34
2018-10-17T15:37:04.615Z,34.98
2018-10-17T15:39:34.265Z,36.11
2018-10-17T15:42:03.900Z,35.80
2018-10-17T15:44:33.888Z,36.67
2018-10-17T15:47:04.209Z,37.08
2018-10-17T15:49:33.828Z,37.36
2018-10-17T15:52:03.486Z,38.09
2018-10-17T15:54:33.102Z,37.83
2018-10-17T15:57:02.720Z,37.88
2018-10-17T15:59:32.345Z,40.01
2018-10-17T16:02:02.147Z,39.30
2018-10-17T16:04:32.171Z,38.36
2018-10-17T16:07:01.847Z,38.12
2018-10-17T16:09:31.379Z,38.16
2018-10-17T16:12:01.002Z,38.76
2018-10-17T16:14:30.715Z,39.63
2018-10-17T16:17:00.490Z,39.99
2018-10-17T16:19:30.199Z,40.21
2018-10-17T16:21:59.722Z,40.89
2018-10-17T16:24:29.522Z,42.07
2018-10-17T16:26:59.207Z,41.96
2018-10-17T16:29:28.845Z,41.19
2018-10-17T16:31:59.389Z,42.06
2018-10-17T16:34:28.951Z,43.07
2018-10-17T16:36:58.596Z,43.95
2018-10-17T16:39:28.399Z,45.10
2018-10-17T16:41:57.933Z,45.10
2018-10-17T16:44:27.523Z,45.51
2018-10-17T16:46:57.203Z,46.36
2018-10-17T16:49:26.825Z,46.41
2018-10-17T16:51:58.463Z,46.34
2018-10-17T16:54:28.084Z,46.58
2018-10-17T16:56:57.851Z,46.68
2018-10-17T16:59:27.649Z,47.07
2018-10-17T17:01:57.313Z,47.30
2018-10-17T17:04:26.826Z,47.83
2018-10-17T17:06:56.418Z,47.23
2018-10-17T17:09:26.053Z,46.97
2018-10-17T17:11:55.621Z,47.36
2018-10-17T17:14:25.516Z,47.53
2018-10-17T17:16:55.154Z,48.01
2018-10-17T17:19:24.908Z,48.18
2018-10-17T17:21:54.511Z,48.80
2018-10-17T17:24:24.198Z,48.90
2018-10-17T17:26:55.076Z,49.10
2018-10-17T17:29:24.701Z,49.10
2018-10-17T17:31:54.306Z,49.46
2018-10-17T17:34:24.110Z,50.16
2018-10-17T17:36:53.775Z,50.35
2018-10-17T17:39:23.421Z,49.95
2018-10-17T17:41:52.947Z,50.43
2018-10-17T17:44:22.738Z,50.13
2018-10-17T17:46:52.400Z,50.05
2018-10-17T17:49:22.119Z,49.52
2018-10-17T17:51:51.795Z,49.48
2018-10-17T17:54:21.439Z,50.03
2018-10-17T17:56:51.145Z,50.73
2018-10-17T17:59:21.733Z,51.08
2018-10-17T18:01:51.380Z,52.31
2018-10-17T18:04:20.930Z,53.03
2018-10-17T18:06:50.692Z,53.57
2018-10-17T18:09:20.230Z,53.83
2018-10-17T18:11:49.904Z,53.33
2018-10-17T18:14:19.493Z,53.70
2018-10-17T18:16:49.271Z,53.88
2018-10-17T18:19:19.156Z,54.25
2018-10-17T18:21:48.793Z,54.07
2018-10-17T18:24:18.635Z,54.30
2018-10-17T18:26:48.254Z,54.86
2018-10-17T18:29:17.898Z,55.35
2018-10-17T18:31:47.463Z,54.72
2018-10-17T18:34:17.220Z,56.26
2018-10-17T18:36:47.189Z,55.74
2018-10-17T18:39:16.792Z,56.12
2018-10-17T18:41:46.497Z,55.83
2018-10-17T18:44:16.113Z,55.35
2018-10-17T18:46:45.787Z,55.87
2018-10-17T18:49:17.427Z,55.53
2018-10-17T18:51:47.003Z,55.48
2018-10-17T18:54:16.630Z,55.76
2018-10-17T18:56:46.186Z,56.29
2018-10-17T18:59:15.843Z,56.19
2018-10-17T19:01:45.714Z,56.90
2018-10-17T19:04:15.168Z,56.81
2018-10-17T19:06:44.685Z,57.15
2018-10-17T19:09:15.014Z,57.44
2018-10-17T19:11:44.597Z,57.93
2018-10-17T19:14:14.103Z,57.75
2018-10-17T19:16:44.799Z,58.13
2018-10-17T19:19:14.463Z,57.99
2018-10-17T19:21:44.102Z,58.07
2018-10-17T19:24:13.681Z,58.18
2018-10-17T19:26:43.325Z,58.53
2018-10-17T19:29:13.109Z,58.93
2018-10-17T19:31:42.685Z,58.77
2018-10-17T19:34:12.373Z,59.18
2018-10-17T19:36:41.913Z,59.67
2018-10-17T19:39:12.877Z,59.10
2018-10-17T19:41:43.127Z,59.87
2018-10-17T19:44:12.862Z,60.00
2018-10-17T19:46:42.415Z,60.17
2018-10-17T19:49:12.170Z,60.09
2018-10-17T19:51:42.748Z,60.38
2018-10-17T19:54:12.601Z,59.75
2018-10-17T19:56:42.191Z,58.99
2018-10-17T19:59:11.741Z,58.92
2018-10-17T20:01:41.348Z,59.16
2018-10-17T20:04:12.609Z,59.62
2018-10-17T20:06:42.313Z,59.62
2018-10-17T20:09:12.213Z,60.24
2018-10-17T20:11:41.791Z,60.34
2018-10-17T20:14:11.474Z,60.83
2018-10-17T20:16:41.003Z,60.66
2018-10-17T20:19:10.907Z,61.22
2018-10-17T20:21:40.511Z,61.60
2018-10-17T20:24:10.146Z,61.96
2018-10-17T20:26:39.799Z,62.23
2018-10-17T20:29:09.409Z,62.34
2018-10-17T20:31:39.052Z,62.32
2018-10-17T20:34:08.761Z,62.32
2018-10-17T20:36:38.538Z,62.29
2018-10-17T20:39:12.117Z,62.67
2018-10-17T20:41:41.751Z,62.80
2018-10-17T20:44:12.800Z,63.16
2018-10-17T20:46:42.381Z,63.23
2018-10-17T20:49:12.084Z,63.65
2018-10-17T20:51:41.782Z,64.36
2018-10-17T20:54:11.318Z,64.44
2018-10-17T20:56:42.192Z,64.71
2018-10-17T20:59:11.736Z,64.94
2018-10-17T21:01:41.433Z,64.39
2018-10-17T21:04:11.078Z,63.60
2018-10-17T21:06:41.731Z,64.50
2018-10-17T21:09:13.591Z,64.33
2018-10-17T21:11:43.273Z,64.70
2018-10-17T21:14:13.905Z,65.53
2018-10-17T21:16:43.696Z,65.88
2018-10-17T21:19:13.373Z,65.55
2018-10-17T21:21:43.044Z,66.30
2018-10-17T21:24:12.809Z,66.07
2018-10-17T21:26:42.374Z,66.27
2018-10-17T21:29:12.720Z,65.84
2018-10-17T21:31:42.389Z,65.32
2018-10-17T21:34:11.958Z,66.01
2018-10-17T21:36:41.645Z,66.38
2018-10-17T21:39:12.899Z,66.94
2018-10-17T21:41:42.674Z,66.47
2018-10-17T21:44:12.525Z,66.69
2018-10-17T21:46:42.009Z,66.24
2018-10-17T21:49:12.038Z,67.03
2018-10-17T21:51:42.035Z,66.39
2018-10-17T21:54:11.731Z,66.90
2018-10-17T21:56:41.467Z,67.53
2018-10-17T21:59:11.116Z,67.60
2018-10-17T22:01:40.815Z,67.70
2018-10-17T22:04:10.311Z,67.62
2018-10-17T22:06:39.950Z,68.46
2018-10-17T22:09:11.669Z,68.70
2018-10-17T22:11:41.218Z,68.35
2018-10-17T22:14:10.904Z,69.09
2018-10-17T22:16:45.708Z,68.91
2018-10-17T22:19:15.521Z,68.68
2018-10-17T22:21:45.071Z,68.39
2018-10-17T22:24:14.693Z,68.38
2018-10-17T22:26:44.298Z,68.63
2018-10-17T22:29:14.053Z,68.97
2018-10-17T22:31:43.921Z,68.90
2018-10-17T22:34:13.618Z,68.92
2018-10-17T22:36:43.215Z,69.11
2018-10-17T22:39:14.640Z,69.69
2018-10-17T22:41:45.399Z,70.16
2018-10-17T22:44:15.054Z,70.37
2018-10-17T22:46:44.661Z,70.30
2018-10-17T22:49:14.451Z,70.35
2018-10-17T22:51:44.317Z,70.17
2018-10-17T22:54:13.987Z,70.20
2018-10-17T22:56:43.805Z,70.19
2018-10-17T22:59:14.521Z,70.51
2018-10-17T23:01:44.248Z,70.57
2018-10-17T23:04:13.917Z,70.38
2018-10-17T23:06:45.610Z,70.03
2018-10-17T23:09:16.026Z,70.08
2018-10-17T23:11:45.734Z,70.38
2018-10-17T23:14:15.336Z,70.37
2018-10-17T23:16:45.170Z,71.35
2018-10-17T23:19:14.914Z,71.98
2018-10-17T23:21:44.522Z,70.19
2018-10-17T23:24:14.178Z,69.19
2018-10-17T23:26:43.745Z,69.27
2018-10-17T23:29:13.343Z,69.10
2018-10-17T23:31:43.034Z,70.52
2018-10-17T23:34:12.678Z,71.61
2018-10-17T23:36:42.736Z,71.64
2018-10-17T23:39:12.287Z,72.95
2018-10-17T23:41:41.931Z,73.07
2018-10-17T23:44:11.704Z,73.10
2018-10-17T23:46:41.297Z,73.33
2018-10-17T23:49:10.975Z,73.35
2018-10-17T23:51:40.492Z,73.24
2018-10-17T23:54:10.076Z,73.75
2018-10-17T23:56:39.637Z,73.64
2018-10-17T23:59:09.478Z,73.74
